Kechi, Kansas
Current Conditions -  °F | °C
As of 10:54 AM on Friday 31 Oct 2014 (Local Time) from KAAO Reporting Station
Clear Clear  
Wind Chill: -1°   Ceiling: Unl
Heat Index:   Visibility: 10mi
Dew Point: -3°   Wind: 18mph
Humidity: 60%   Direction: 40°NE
Pressure: 30.5"   Gusts: 24mph
Location:  37.8°N, 97.28°W
Report Text: KAAO 311554Z AUTO 04016G21KT 10SM CLR 04/M03 A3050 RMK AO2 SLP334 T00441028
Loading
Personal Weather Stations






























Interactive Weather Map
Tropical Storm Tracking
New forecast layout! Learn more

10-Day Weather Forecast

Advertisements
Track Severe Weather on mobile